Time;durP1;ratioP1;P1;durP2;ratioP2;P2;SDS_P1;SDS_P2;PMS_P1;PMS_P2;Temp;Humidity;BMP_temperature;BMP_pressure;BME280_temperature;BME280_humidity;BME280_pressure;Samples;Min_cycle;Max_cycle;Signal;HPM_P1;HPM_P2
2021/09/14 00:01:27;;;;;;;4.82;3.85;;;12.90;99.90;;;;;;4991305;28;20444;-77
2021/09/14 00:03:53;;;;;;;5.97;4.30;;;12.90;99.90;;;;;;4989509;28;20042;-76
2021/09/14 00:06:18;;;;;;;7.03;4.35;;;12.90;99.90;;;;;;4984680;28;20058;-77
2021/09/14 00:08:44;;;;;;;5.78;4.35;;;12.90;99.90;;;;;;4991198;28;20026;-78
2021/09/14 00:11:10;;;;;;;7.32;3.95;;;12.90;99.90;;;;;;4994383;28;20089;-77
2021/09/14 00:13:36;;;;;;;4.40;3.95;;;12.80;99.90;;;;;;4980814;28;20088;-77
2021/09/14 00:16:02;;;;;;;7.28;3.47;;;12.80;99.90;;;;;;4972824;28;20039;-77
2021/09/14 00:18:27;;;;;;;6.57;4.00;;;12.80;99.90;;;;;;4956939;28;20026;-77
2021/09/14 00:20:53;;;;;;;4.82;3.25;;;12.70;99.90;;;;;;4974735;28;20061;-77
2021/09/14 00:23:19;;;;;;;4.78;3.75;;;12.70;99.90;;;;;;4992908;28;20085;-76
2021/09/14 00:25:44;;;;;;;3.97;3.42;;;12.70;99.90;;;;;;4981425;28;20045;-77
2021/09/14 00:28:10;;;;;;;4.63;3.35;;;12.70;99.90;;;;;;4985090;28;20059;-77
2021/09/14 00:30:36;;;;;;;5.57;4.10;;;12.70;99.90;;;;;;4956544;28;20369;-77
2021/09/14 00:33:01;;;;;;;4.30;3.90;;;12.70;99.90;;;;;;4961485;28;20031;-77
2021/09/14 00:35:27;;;;;;;6.05;4.00;;;12.70;99.90;;;;;;4988392;28;20038;-77
2021/09/14 00:37:53;;;;;;;4.60;3.72;;;12.60;99.90;;;;;;4984021;28;20405;-77
2021/09/14 00:40:19;;;;;;;4.13;3.28;;;12.70;99.90;;;;;;4965346;28;20030;-77
2021/09/14 00:42:45;;;;;;;6.07;3.83;;;12.60;99.90;;;;;;4981470;28;20185;-77
2021/09/14 00:45:12;;;;;;;5.03;3.58;;;12.60;99.90;;;;;;4980327;28;20034;-77
2021/09/14 00:47:37;;;;;;;4.65;3.90;;;12.70;99.90;;;;;;4985079;28;20027;-77
2021/09/14 00:50:05;;;;;;;5.10;4.13;;;12.60;99.90;;;;;;4971325;28;20046;-77
2021/09/14 00:52:35;;;;;;;5.28;4.10;;;12.60;99.90;;;;;;4972004;28;20031;-77
2021/09/14 00:55:02;;;;;;;4.82;4.25;;;12.60;99.90;;;;;;4982143;28;20404;-77
2021/09/14 00:57:28;;;;;;;3.85;3.50;;;12.50;99.90;;;;;;4973926;28;20539;-77
2021/09/14 00:59:54;;;;;;;5.97;4.53;;;12.50;99.90;;;;;;4966010;28;20034;-77
2021/09/14 01:02:19;;;;;;;4.50;3.95;;;12.50;99.90;;;;;;4963340;28;20045;-77
2021/09/14 01:04:45;;;;;;;5.38;4.30;;;12.50;99.90;;;;;;4953184;28;20037;-77
2021/09/14 01:07:11;;;;;;;4.78;3.72;;;12.50;99.90;;;;;;4982767;28;20034;-77
2021/09/14 01:09:37;;;;;;;5.38;4.15;;;12.50;99.90;;;;;;4966136;28;20456;-77
2021/09/14 01:12:04;;;;;;;5.05;4.05;;;12.50;99.90;;;;;;4962905;28;20035;-78
2021/09/14 01:14:30;;;;;;;6.38;4.40;;;12.50;99.90;;;;;;4955798;28;20502;-77
2021/09/14 01:16:55;;;;;;;4.97;4.15;;;12.40;99.90;;;;;;4964375;28;20045;-77
2021/09/14 01:19:21;;;;;;;5.75;4.82;;;12.40;99.90;;;;;;4944180;28;20035;-77
2021/09/14 01:21:47;;;;;;;4.95;4.30;;;12.40;99.90;;;;;;4972992;28;20046;-77
2021/09/14 01:24:13;;;;;;;5.82;4.10;;;12.40;99.90;;;;;;4969823;28;20050;-77
2021/09/14 01:26:44;;;;;;;4.18;3.78;;;12.30;99.90;;;;;;4975784;28;20026;-77
2021/09/14 01:30:12;;;;;;;4.18;3.75;;;12.30;99.90;;;;;;4959498;28;20037;-77
2021/09/14 01:32:00;;;;;;;6.25;4.07;;;12.30;99.90;;;;;;4953845;28;20035;-77
2021/09/14 01:34:28;;;;;;;5.68;4.30;;;12.30;99.90;;;;;;4958453;28;20022;-77
2021/09/14 01:36:53;;;;;;;5.20;4.15;;;12.30;99.90;;;;;;4967801;28;20034;-77
2021/09/14 01:39:19;;;;;;;5.07;4.32;;;12.30;99.90;;;;;;4976741;28;20133;-77
2021/09/14 01:41:45;;;;;;;6.15;4.05;;;12.30;99.90;;;;;;4961072;28;20108;-77
2021/09/14 01:44:11;;;;;;;5.47;4.70;;;12.20;99.90;;;;;;4972747;28;20031;-77
2021/09/14 01:46:37;;;;;;;6.30;4.07;;;12.20;99.90;;;;;;4941379;28;20554;-78
2021/09/14 01:49:03;;;;;;;4.45;4.00;;;12.20;99.90;;;;;;4958471;28;20030;-78
2021/09/14 01:51:29;;;;;;;5.63;4.55;;;12.20;99.90;;;;;;4991931;28;20022;-77
2021/09/14 01:53:56;;;;;;;5.07;4.57;;;12.20;99.90;;;;;;4961937;28;20501;-77
2021/09/14 01:56:22;;;;;;;4.68;4.07;;;12.20;99.90;;;;;;4990657;28;20058;-76
2021/09/14 01:58:48;;;;;;;5.47;4.50;;;12.10;99.90;;;;;;4960513;28;20112;-75
2021/09/14 02:01:27;;;;;;;6.65;4.63;;;12.10;99.90;;;;;;4960924;28;20488;-75
2021/09/14 02:23:38;;;;;;;4.28;3.88;;;12.10;99.90;;;;;;4973149;28;20130;-75
2021/09/14 02:42:22;;;;;;;3.95;3.55;;;11.80;99.90;;;;;;4969694;28;20027;-75
2021/09/14 03:00:56;;;;;;;5.15;3.90;;;11.70;99.90;;;;;;4985574;28;20519;-75
2021/09/14 03:03:23;;;;;;;4.60;4.13;;;11.70;99.90;;;;;;4970934;28;20157;-75
2021/09/14 03:05:49;;;;;;;7.28;4.63;;;11.70;99.90;;;;;;4972606;28;20031;-75
2021/09/14 03:08:15;;;;;;;5.05;3.90;;;11.70;99.90;;;;;;4989059;28;20038;-75
2021/09/14 03:10:41;;;;;;;4.65;3.90;;;11.70;99.90;;;;;;4969914;28;20443;-75
2021/09/14 03:13:06;;;;;;;7.75;4.25;;;11.70;99.90;;;;;;4974138;28;20030;-76
2021/09/14 03:15:32;;;;;;;5.88;4.50;;;11.70;99.90;;;;;;4973601;28;20034;-75
2021/09/14 03:17:58;;;;;;;4.53;3.97;;;11.60;99.90;;;;;;4954106;28;20403;-75
2021/09/14 03:20:24;;;;;;;6.38;4.43;;;11.60;99.90;;;;;;4971054;28;20034;-75
2021/09/14 03:22:50;;;;;;;6.43;4.13;;;11.60;99.90;;;;;;4956816;28;20065;-75
2021/09/14 03:25:15;;;;;;;7.05;3.65;;;11.60;99.90;;;;;;4956270;28;20443;-77
2021/09/14 03:27:41;;;;;;;5.47;4.00;;;11.60;99.90;;;;;;4955110;28;20027;-78
2021/09/14 03:30:08;;;;;;;4.85;4.18;;;11.60;99.90;;;;;;4958169;28;20563;-78
2021/09/14 03:32:37;;;;;;;5.18;4.00;;;11.60;99.90;;;;;;4960918;28;20720;-76
2021/09/14 03:35:03;;;;;;;5.05;4.10;;;11.60;99.90;;;;;;4966147;28;20034;-76
2021/09/14 03:37:29;;;;;;;5.00;3.97;;;11.60;99.90;;;;;;4960146;28;20034;-79
2021/09/14 03:39:55;;;;;;;5.20;4.20;;;11.50;99.90;;;;;;4974840;28;20053;-78
2021/09/14 03:42:21;;;;;;;4.38;3.75;;;11.50;99.90;;;;;;4982810;28;20380;-78
2021/09/14 03:44:47;;;;;;;5.63;3.80;;;11.50;99.90;;;;;;4958883;28;20045;-78
2021/09/14 03:47:13;;;;;;;5.72;4.03;;;11.50;99.90;;;;;;4986097;28;20031;-78
2021/09/14 03:49:41;;;;;;;5.20;3.92;;;11.50;99.90;;;;;;4959117;28;20026;-77
2021/09/14 03:52:07;;;;;;;5.35;4.03;;;11.50;99.90;;;;;;4953503;28;20045;-76
2021/09/14 03:54:33;;;;;;;6.18;3.97;;;11.50;99.90;;;;;;4973775;28;20145;-76
2021/09/14 03:56:59;;;;;;;5.07;3.97;;;11.50;99.90;;;;;;4956613;28;20041;-76
2021/09/14 03:59:25;;;;;;;4.63;3.85;;;11.40;99.90;;;;;;4978934;28;20117;-76
2021/09/14 04:01:55;;;;;;;5.03;3.63;;;11.50;99.90;;;;;;4971450;28;20088;-76
2021/09/14 04:04:24;;;;;;;4.55;3.78;;;11.40;99.90;;;;;;4964557;28;20129;-78
2021/09/14 04:09:19;;;;;;;3.95;3.55;;;11.40;99.90;;;;;;4941067;28;20038;-78
2021/09/14 04:11:50;;;;;;;4.22;2.97;;;11.40;99.90;;;;;;4964766;28;20544;-76
2021/09/14 04:14:17;;;;;;;4.47;3.60;;;11.40;99.90;;;;;;4970856;28;20037;-76
2021/09/14 04:16:44;;;;;;;5.65;3.70;;;11.40;99.90;;;;;;4970669;28;20053;-76
2021/09/14 04:19:09;;;;;;;4.63;3.85;;;11.30;99.90;;;;;;4957398;28;20065;-78
2021/09/14 04:21:36;;;;;;;4.32;3.78;;;11.30;99.90;;;;;;4961679;28;20030;-76
2021/09/14 04:24:02;;;;;;;5.20;3.63;;;11.30;99.90;;;;;;4936321;28;20035;-78
2021/09/14 04:26:31;;;;;;;3.90;3.45;;;11.30;99.90;;;;;;4960314;28;20503;-78
2021/09/14 04:28:57;;;;;;;6.15;4.35;;;11.30;99.90;;;;;;4959993;28;20038;-78
2021/09/14 04:31:22;;;;;;;4.13;3.67;;;11.20;99.90;;;;;;4960228;28;20380;-78
2021/09/14 04:33:48;;;;;;;4.50;3.97;;;11.20;99.90;;;;;;4993479;28;20289;-77
2021/09/14 04:36:14;;;;;;;5.95;4.10;;;11.20;99.90;;;;;;4971770;28;20095;-78
2021/09/14 04:38:42;;;;;;;5.32;4.60;;;11.20;99.90;;;;;;4959670;28;20018;-78
2021/09/14 04:41:09;;;;;;;4.95;4.05;;;11.20;99.90;;;;;;4967438;28;20401;-78
2021/09/14 04:43:36;;;;;;;5.25;4.07;;;11.20;99.90;;;;;;4965689;28;20033;-78
2021/09/14 04:46:04;;;;;;;4.70;4.18;;;11.20;99.90;;;;;;4969798;28;20113;-77
2021/09/14 04:48:31;;;;;;;5.07;3.88;;;11.20;99.90;;;;;;4977827;28;20022;-78
2021/09/14 04:50:58;;;;;;;4.75;4.00;;;11.10;99.90;;;;;;4973652;28;20062;-78
2021/09/14 04:53:23;;;;;;;5.20;4.20;;;11.10;99.90;;;;;;4977685;28;20030;-79
2021/09/14 04:55:51;;;;;;;4.70;3.80;;;11.10;99.90;;;;;;4984164;28;20113;-77
2021/09/14 04:58:17;;;;;;;6.38;3.97;;;11.10;99.90;;;;;;4962907;28;20469;-78
2021/09/14 05:00:43;;;;;;;5.07;4.07;;;11.10;99.90;;;;;;4979332;28;20039;-77
2021/09/14 05:03:13;;;;;;;6.68;3.83;;;11.20;99.90;;;;;;4957609;28;20126;-77
2021/09/14 05:05:39;;;;;;;5.65;4.28;;;11.20;99.90;;;;;;5030033;22;20040;-78
2021/09/14 05:08:05;;;;;;;4.72;4.00;;;11.20;99.90;;;;;;5032563;28;20036;-79
2021/09/14 05:10:31;;;;;;;7.30;5.13;;;11.20;99.90;;;;;;5003743;28;20141;-78
2021/09/14 05:12:57;;;;;;;7.03;4.28;;;11.30;99.90;;;;;;5015426;28;20033;-79
2021/09/14 05:15:23;;;;;;;6.93;4.78;;;11.30;99.90;;;;;;5020834;28;20075;-77
2021/09/14 05:18:10;;;;;;;5.45;4.20;;;11.40;99.90;;;;;;5018241;28;20033;-79
2021/09/14 05:20:46;;;;;;;8.40;5.28;;;11.40;99.90;;;;;;4998267;28;20066;-79
2021/09/14 05:23:14;;;;;;;13.80;8.73;;;11.40;99.90;;;;;;5023886;28;20030;-79
2021/09/14 05:25:41;;;;;;;17.10;11.00;;;11.40;99.90;;;;;;5018568;28;20045;-79
2021/09/14 05:28:09;;;;;;;18.17;11.68;;;11.40;99.90;;;;;;5019071;28;20171;-78
2021/09/14 05:30:35;;;;;;;20.17;12.77;;;11.40;99.90;;;;;;5031180;28;20026;-79
2021/09/14 05:33:01;;;;;;;21.50;14.05;;;11.40;99.90;;;;;;5035711;28;20017;-79
2021/09/14 05:35:42;;;;;;;18.77;12.23;;;11.50;99.90;;;;;;5038935;28;20045;-79
2021/09/14 05:38:08;;;;;;;17.27;11.77;;;11.50;99.90;;;;;;5019482;28;20091;-79
2021/09/14 05:40:35;;;;;;;17.20;12.30;;;11.50;99.90;;;;;;5019909;28;20450;-79
2021/09/14 05:43:07;;;;;;;19.25;10.55;;;11.50;99.90;;;;;;5003670;28;20041;-79
2021/09/14 05:45:33;;;;;;;18.45;11.05;;;11.60;99.90;;;;;;5020568;28;20040;-77
2021/09/14 05:48:00;;;;;;;19.55;11.48;;;11.70;99.90;;;;;;5016679;28;20083;-78
2021/09/14 05:50:27;;;;;;;17.10;10.93;;;11.80;99.90;;;;;;5018940;28;20033;-79
2021/09/14 05:52:53;;;;;;;16.42;10.25;;;12.00;99.90;;;;;;5013813;28;20523;-78
2021/09/14 05:55:19;;;;;;;22.58;12.88;;;12.20;99.90;;;;;;5000115;28;20037;-79
2021/09/14 05:57:46;;;;;;;20.17;13.02;;;12.50;99.90;;;;;;5019543;28;20034;-78
2021/09/14 06:00:15;;;;;;;21.50;12.18;;;12.70;99.90;;;;;;5016899;28;20033;-78
2021/09/14 06:02:48;;;;;;;20.92;12.05;;;12.90;99.90;;;;;;5013397;28;20124;-77
2021/09/14 06:05:16;;;;;;;19.35;10.25;;;13.00;99.90;;;;;;5012260;28;20100;-78
2021/09/14 06:07:43;;;;;;;13.00;8.75;;;13.30;99.90;;;;;;5015294;28;20480;-78
2021/09/14 06:10:10;;;;;;;8.18;5.80;;;13.50;99.90;;;;;;5016682;28;20085;-78
2021/09/14 06:12:45;;;;;;;9.63;6.25;;;13.70;99.90;;;;;;4998601;28;20029;-79
2021/09/14 06:15:11;;;;;;;15.18;9.30;;;13.90;99.90;;;;;;4999621;28;20038;-79
2021/09/14 06:17:42;;;;;;;11.45;8.13;;;14.00;99.90;;;;;;5025571;28;20061;-79
2021/09/14 06:20:09;;;;;;;14.25;9.48;;;14.20;99.90;;;;;;5013699;28;20123;-78
2021/09/14 06:22:37;;;;;;;15.32;9.10;;;14.40;99.90;;;;;;5016053;28;20180;-79
2021/09/14 06:25:04;;;;;;;11.40;7.50;;;14.50;99.90;;;;;;5015518;28;20124;-78
2021/09/14 06:27:29;;;;;;;11.32;7.55;;;14.80;99.90;;;;;;5015106;28;20030;-79
2021/09/14 06:29:57;;;;;;;15.18;7.53;;;14.90;99.90;;;;;;5013283;28;20033;-78
2021/09/14 06:32:22;;;;;;;13.85;7.60;;;15.10;99.90;;;;;;5018755;28;20030;-78
2021/09/14 06:35:00;;;;;;;10.82;7.65;;;15.30;99.90;;;;;;5014119;28;20038;-79
2021/09/14 06:37:30;;;;;;;10.60;8.02;;;15.50;99.90;;;;;;5029124;28;20029;-79
2021/09/14 06:39:56;;;;;;;13.52;7.25;;;15.60;99.90;;;;;;5006385;28;20128;-78
2021/09/14 06:42:24;;;;;;;11.65;7.63;;;15.80;99.90;;;;;;5011496;28;20033;-80
2021/09/14 06:44:58;;;;;;;9.88;6.78;;;15.90;99.90;;;;;;4996834;28;20034;-77
2021/09/14 06:47:44;;;;;;;9.88;7.00;;;16.10;99.90;;;;;;5029345;28;20543;-79
2021/09/14 06:50:10;;;;;;;10.48;6.93;;;16.40;99.90;;;;;;5027662;28;20105;-79
2021/09/14 06:52:39;;;;;;;7.30;5.85;;;16.60;99.90;;;;;;5010922;28;20029;-79
2021/09/14 06:55:07;;;;;;;9.52;6.80;;;16.70;99.90;;;;;;5011078;28;20030;-78
2021/09/14 06:57:32;;;;;;;8.15;6.63;;;16.90;99.90;;;;;;5028376;28;20026;-79
2021/09/14 06:59:59;;;;;;;9.23;6.28;;;17.10;99.90;;;;;;5007863;28;20403;-79
2021/09/14 07:03:15;;;;;;;7.95;6.13;;;17.30;99.90;;;;;;5036188;28;20052;-79
2021/09/14 07:05:40;;;;;;;8.02;5.75;;;17.60;99.90;;;;;;5023113;28;20561;-79
2021/09/14 07:08:06;;;;;;;9.25;6.55;;;17.80;99.90;;;;;;5035182;28;20056;-79
2021/09/14 07:10:32;;;;;;;8.82;7.38;;;18.00;99.90;;;;;;5033953;28;20112;-79
2021/09/14 07:12:58;;;;;;;8.77;6.13;;;18.00;99.90;;;;;;5030298;28;20033;-79
2021/09/14 07:15:24;;;;;;;6.95;5.65;;;18.10;99.90;;;;;;5015651;28;20444;-78
2021/09/14 07:17:50;;;;;;;8.82;5.55;;;18.20;99.90;;;;;;5031149;28;20026;-79
2021/09/14 07:20:15;;;;;;;10.25;6.30;;;18.20;99.90;;;;;;5022798;28;20099;-79
2021/09/14 07:22:42;;;;;;;7.07;5.75;;;18.00;99.90;;;;;;5034034;28;20040;-78
2021/09/14 07:25:08;;;;;;;8.38;5.68;;;17.80;99.90;;;;;;5017203;28;20060;-78
2021/09/14 07:27:34;;;;;;;6.90;5.65;;;17.70;99.90;;;;;;5032988;28;20033;-78
2021/09/14 07:30:00;;;;;;;6.35;5.53;;;17.70;99.90;;;;;;5034331;28;20037;-79
2021/09/14 07:32:25;;;;;;;9.65;5.95;;;17.80;99.90;;;;;;5016483;28;20034;-78
2021/09/14 07:34:51;;;;;;;10.30;6.07;;;18.10;99.90;;;;;;5016371;28;20036;-79
2021/09/14 07:37:17;;;;;;;8.48;6.05;;;18.30;99.90;;;;;;5015605;28;20037;-79
2021/09/14 07:39:42;;;;;;;6.05;5.45;;;18.60;99.90;;;;;;5021249;28;20029;-78
2021/09/14 07:42:08;;;;;;;8.70;5.90;;;18.80;99.90;;;;;;5029554;28;20030;-78
2021/09/14 07:44:34;;;;;;;7.20;5.25;;;19.00;99.90;;;;;;5015562;28;20130;-79
2021/09/14 07:47:00;;;;;;;8.40;6.20;;;18.90;99.90;;;;;;5026134;28;20728;-79
2021/09/14 07:49:26;;;;;;;7.78;5.00;;;19.10;99.90;;;;;;5027253;28;20029;-78
2021/09/14 07:51:51;;;;;;;8.02;5.20;;;19.40;99.90;;;;;;5031811;28;20509;-79
2021/09/14 07:54:17;;;;;;;6.78;5.50;;;19.60;99.90;;;;;;5014311;28;20037;-79
2021/09/14 07:56:43;;;;;;;7.00;5.32;;;19.50;99.90;;;;;;5031548;28;20045;-80
2021/09/14 07:59:09;;;;;;;7.03;5.80;;;19.60;99.90;;;;;;4993717;28;20107;-78
2021/09/14 08:01:35;;;;;;;8.60;6.20;;;19.60;99.90;;;;;;5032399;28;20053;-79
2021/09/14 08:04:01;;;;;;;5.82;4.90;;;19.70;99.90;;;;;;5028130;28;20496;-79
2021/09/14 08:06:26;;;;;;;5.93;5.07;;;19.60;99.90;;;;;;5039122;28;20021;-79
2021/09/14 08:08:52;;;;;;;8.50;5.00;;;19.60;99.90;;;;;;5028910;28;20033;-79
2021/09/14 08:11:18;;;;;;;5.82;5.22;;;19.70;99.90;;;;;;5035797;28;20049;-79
2021/09/14 08:13:51;;;;;;;7.00;5.05;;;19.80;99.90;;;;;;5012915;28;20017;-79
2021/09/14 08:16:17;;;;;;;8.00;5.03;;;19.90;99.90;;;;;;5000429;28;20036;-78
2021/09/14 08:18:44;;;;;;;6.32;4.80;;;19.90;99.90;;;;;;5009559;28;20022;-78
2021/09/14 08:21:09;;;;;;;6.00;4.25;;;20.10;99.90;;;;;;5028217;28;20041;-78
2021/09/14 08:23:35;;;;;;;5.65;4.10;;;20.20;99.90;;;;;;5034499;28;20036;-79
2021/09/14 08:26:02;;;;;;;5.80;4.78;;;20.30;99.90;;;;;;4995961;28;20400;-80
2021/09/14 08:28:28;;;;;;;5.18;4.55;;;20.30;99.90;;;;;;5026193;28;20030;-79
2021/09/14 08:30:55;;;;;;;5.55;4.68;;;20.30;99.90;;;;;;5008429;28;20032;-79
2021/09/14 08:33:20;;;;;;;4.75;4.18;;;20.40;99.90;;;;;;5031609;28;20029;-79
2021/09/14 08:35:46;;;;;;;5.13;4.38;;;20.50;99.90;;;;;;5029269;28;20718;-79
2021/09/14 08:38:12;;;;;;;5.82;4.30;;;20.50;99.90;;;;;;5016153;28;20026;-79
2021/09/14 08:40:41;;;;;;;9.88;5.63;;;20.60;99.90;;;;;;5011996;28;20495;-77
2021/09/14 08:43:10;;;;;;;18.17;6.70;;;20.70;99.90;;;;;;5025354;28;20030;-78
2021/09/14 08:45:36;;;;;;;5.63;4.55;;;20.70;99.90;;;;;;5024984;28;20755;-79
2021/09/14 08:48:04;;;;;;;4.90;4.15;;;20.70;99.90;;;;;;4990312;28;20029;-78
2021/09/14 08:50:30;;;;;;;4.85;4.07;;;20.60;99.90;;;;;;5030477;28;20022;-79
2021/09/14 08:52:56;;;;;;;4.30;3.75;;;20.60;99.90;;;;;;5014582;28;20136;-79
2021/09/14 08:55:22;;;;;;;6.05;4.15;;;20.50;99.90;;;;;;5032785;28;20089;-79
2021/09/14 08:57:54;;;;;;;5.07;3.90;;;20.40;99.90;;;;;;5028346;28;20045;-80
2021/09/14 09:00:37;;;;;;;5.90;4.47;;;20.40;99.90;;;;;;5036250;28;20149;-80
2021/09/14 09:03:04;;;;;;;4.53;4.13;;;20.50;99.90;;;;;;5012762;28;20034;-80
2021/09/14 09:05:35;;;;;;;6.15;4.50;;;20.50;99.90;;;;;;5025755;28;20128;-79
2021/09/14 09:08:02;;;;;;;6.13;4.28;;;20.60;99.90;;;;;;5028322;28;20022;-79
2021/09/14 09:10:33;;;;;;;4.93;4.20;;;20.60;99.90;;;;;;5014757;28;20613;-79
2021/09/14 09:13:04;;;;;;;8.52;4.35;;;20.70;99.90;;;;;;5014581;28;20101;-79
2021/09/14 09:15:33;;;;;;;5.05;4.10;;;20.80;99.90;;;;;;5019151;28;20029;-80
2021/09/14 09:18:10;;;;;;;5.38;4.07;;;20.90;99.90;;;;;;5034524;28;20041;-80
2021/09/14 09:20:42;;;;;;;5.88;4.95;;;20.90;99.90;;;;;;5012911;28;20043;-78
2021/09/14 09:23:13;;;;;;;4.80;4.28;;;20.90;99.90;;;;;;5019311;28;20533;-79
2021/09/14 09:25:39;;;;;;;4.95;4.40;;;20.80;99.90;;;;;;5016805;28;20032;-80
2021/09/14 09:28:10;;;;;;;5.35;4.70;;;20.80;99.90;;;;;;5020145;28;20475;-79
2021/09/14 09:30:38;;;;;;;5.45;4.05;;;20.90;99.90;;;;;;5042880;28;20079;-79
2021/09/14 09:33:08;;;;;;;4.90;3.90;;;21.00;99.90;;;;;;5018971;28;20104;-79
2021/09/14 09:35:40;;;;;;;5.65;4.18;;;20.90;99.90;;;;;;5020856;28;20044;-79
2021/09/14 09:38:07;;;;;;;4.40;3.97;;;21.00;99.90;;;;;;5022214;28;20030;-79
2021/09/14 09:40:43;;;;;;;5.32;4.43;;;21.10;99.90;;;;;;5023458;28;20399;-79
2021/09/14 09:43:11;;;;;;;4.90;4.40;;;21.10;99.90;;;;;;5009368;28;20491;-79
2021/09/14 09:45:44;;;;;;;6.50;4.40;;;21.20;99.90;;;;;;5035233;28;20438;-79
2021/09/14 09:48:11;;;;;;;4.45;4.03;;;21.30;99.90;;;;;;5026087;28;20030;-79
2021/09/14 09:50:38;;;;;;;4.93;4.32;;;21.40;99.90;;;;;;5023852;28;20033;-79
2021/09/14 09:53:06;;;;;;;4.38;3.97;;;21.50;99.90;;;;;;5021750;28;20029;-80
2021/09/14 09:55:34;;;;;;;4.25;3.72;;;21.60;99.90;;;;;;5016477;28;20398;-80
2021/09/14 09:58:03;;;;;;;5.95;4.30;;;21.60;99.90;;;;;;5046361;28;20029;-79
2021/09/14 10:00:30;;;;;;;4.63;3.58;;;21.70;99.90;;;;;;5034564;28;20093;-77
2021/09/14 10:03:04;;;;;;;4.32;3.92;;;21.80;99.90;;;;;;5026787;28;20060;-78
2021/09/14 10:05:34;;;;;;;3.65;3.30;;;21.90;99.90;;;;;;5031163;28;20120;-78
2021/09/14 10:08:22;;;;;;;5.07;3.65;;;22.00;99.90;;;;;;5037626;28;20471;-78
2021/09/14 10:10:57;;;;;;;3.92;3.53;;;22.10;99.90;;;;;;5042782;28;20033;-77
2021/09/14 10:13:39;;;;;;;3.97;3.55;;;22.20;99.90;;;;;;5013807;28;20029;-77
2021/09/14 10:16:05;;;;;;;5.95;3.50;;;22.20;99.90;;;;;;5032365;28;20043;-79
2021/09/14 10:18:33;;;;;;;3.95;3.55;;;22.30;99.90;;;;;;5008507;28;20033;-79
2021/09/14 10:21:00;;;;;;;4.53;3.83;;;22.40;99.90;;;;;;5039030;28;20037;-78
2021/09/14 10:23:34;;;;;;;4.93;3.88;;;22.40;99.90;;;;;;5028124;28;20068;-79
2021/09/14 10:26:07;;;;;;;3.80;3.42;;;22.50;99.90;;;;;;5031838;28;20049;-79
2021/09/14 10:28:42;;;;;;;7.50;3.83;;;22.60;99.90;;;;;;5031412;28;20097;-79
2021/09/14 10:31:21;;;;;;;5.00;3.30;;;22.60;99.90;;;;;;5015298;28;20055;-79
2021/09/14 10:33:47;;;;;;;3.85;3.47;;;22.70;99.90;;;;;;5016359;28;20025;-78
2021/09/14 10:36:14;;;;;;;6.70;3.65;;;22.70;99.90;;;;;;5002053;28;20025;-77
2021/09/14 10:38:49;;;;;;;4.78;3.60;;;22.80;99.90;;;;;;5031957;28;20030;-79
2021/09/14 10:41:16;;;;;;;3.70;3.38;;;22.90;99.90;;;;;;5023507;28;20034;-77
2021/09/14 10:43:52;;;;;;;4.63;2.67;;;22.90;99.90;;;;;;5015548;28;20040;-77
2021/09/14 10:46:24;;;;;;;3.97;3.00;;;22.90;99.90;;;;;;4996297;28;20033;-78
2021/09/14 10:48:53;;;;;;;3.72;3.28;;;22.90;99.90;;;;;;5015625;28;20502;-77
2021/09/14 10:51:19;;;;;;;8.02;3.08;;;23.00;99.90;;;;;;5031898;28;20028;-76
2021/09/14 10:53:58;;;;;;;4.25;3.83;;;22.90;99.90;;;;;;5021112;28;20044;-77
2021/09/14 10:56:27;;;;;;;5.28;3.53;;;23.00;99.90;;;;;;5025483;28;20112;-77
2021/09/14 10:58:55;;;;;;;3.45;3.05;;;23.10;99.90;;;;;;5022472;28;20038;-77
2021/09/14 11:01:25;;;;;;;3.83;3.08;;;23.10;99.90;;;;;;5031653;28;20025;-77
2021/09/14 11:04:00;;;;;;;3.25;2.95;;;23.10;99.90;;;;;;4995751;28;1097696;-77
2021/09/14 11:06:27;;;;;;;2.80;2.55;;;23.20;99.90;;;;;;5015868;28;20511;-78
2021/09/14 11:12:45;;;;;;;3.03;2.70;;;23.30;99.90;;;;;;5017742;28;20057;-77
2021/09/14 11:15:11;;;;;;;3.65;3.22;;;23.40;99.90;;;;;;5021692;28;20072;-77
2021/09/14 11:17:36;;;;;;;5.10;2.75;;;23.40;99.90;;;;;;5007637;28;20032;-77
2021/09/14 11:20:19;;;;;;;6.07;3.05;;;23.40;99.90;;;;;;5025369;28;20021;-77
2021/09/14 11:22:46;;;;;;;3.58;2.92;;;23.40;99.90;;;;;;5002122;28;20553;-77
2021/09/14 11:26:02;;;;;;;7.72;3.10;;;23.40;99.90;;;;;;5004878;28;20057;-77
2021/09/14 11:28:27;;;;;;;3.72;2.90;;;23.40;99.90;;;;;;5029358;28;20025;-77
2021/09/14 11:31:06;;;;;;;4.00;3.17;;;23.40;99.90;;;;;;5030056;28;20048;-78
2021/09/14 11:33:32;;;;;;;3.88;3.00;;;23.40;99.90;;;;;;5031483;28;20021;-77
2021/09/14 11:36:00;;;;;;;3.42;2.90;;;23.40;99.90;;;;;;5007275;28;20175;-77
2021/09/14 11:38:26;;;;;;;3.25;2.95;;;23.40;99.90;;;;;;5026232;28;20108;-78
2021/09/14 11:40:59;;;;;;;3.45;3.15;;;23.60;99.90;;;;;;5021920;28;20561;-77
2021/09/14 11:43:27;;;;;;;3.40;3.10;;;23.60;99.90;;;;;;5008919;28;20046;-78
2021/09/14 11:45:55;;;;;;;3.92;3.20;;;23.60;99.90;;;;;;5020430;28;20113;-79
2021/09/14 11:48:26;;;;;;;4.57;3.10;;;23.60;99.90;;;;;;5010302;28;20113;-78
2021/09/14 11:51:06;;;;;;;3.60;2.97;;;23.70;99.90;;;;;;5023028;28;20025;-77
2021/09/14 11:53:33;;;;;;;5.85;3.00;;;23.80;99.90;;;;;;5025805;28;20040;-77
2021/09/14 11:55:59;;;;;;;3.35;2.80;;;23.90;99.90;;;;;;5003612;28;20363;-76
2021/09/14 11:58:33;;;;;;;6.28;3.47;;;23.90;99.90;;;;;;5016853;28;20033;-78
2021/09/14 12:01:02;;;;;;;3.65;3.20;;;23.90;99.90;;;;;;5021900;28;20040;-77
2021/09/14 12:03:44;;;;;;;3.75;3.08;;;24.00;99.90;;;;;;5024495;28;20484;-76
2021/09/14 12:06:11;;;;;;;3.75;2.70;;;24.10;99.90;;;;;;5024139;28;20551;-77
2021/09/14 12:08:42;;;;;;;3.50;3.20;;;24.10;99.90;;;;;;5003904;28;20113;-77
2021/09/14 12:11:09;;;;;;;3.97;2.85;;;24.20;99.90;;;;;;5004722;28;20034;-78
2021/09/14 12:13:43;;;;;;;4.10;2.67;;;24.20;99.90;;;;;;5022841;28;20100;-78
2021/09/14 12:16:13;;;;;;;5.13;3.20;;;24.20;99.90;;;;;;4992353;28;20037;-76
2021/09/14 12:18:42;;;;;;;2.60;2.20;;;24.30;99.90;;;;;;5026417;28;20042;-77
2021/09/14 12:21:11;;;;;;;3.53;2.70;;;24.30;99.90;;;;;;5001089;28;20034;-77
2021/09/14 12:23:37;;;;;;;2.40;2.20;;;24.30;99.90;;;;;;5023345;28;20507;-79
2021/09/14 12:26:04;;;;;;;3.70;2.50;;;24.30;99.90;;;;;;5009759;28;20104;-78
2021/09/14 12:28:29;;;;;;;2.80;2.40;;;24.30;99.90;;;;;;5026820;28;20040;-77
2021/09/14 12:30:55;;;;;;;2.75;2.55;;;24.30;99.90;;;;;;5014101;28;20026;-78
2021/09/14 12:33:21;;;;;;;3.17;2.47;;;24.40;99.80;;;;;;5031264;28;20168;-77
2021/09/14 12:35:47;;;;;;;4.25;2.60;;;24.20;98.10;;;;;;5027038;28;20095;-78
2021/09/14 12:38:13;;;;;;;2.92;2.63;;;24.30;99.90;;;;;;5023503;28;20033;-78
2021/09/14 12:40:38;;;;;;;3.97;2.90;;;24.30;99.90;;;;;;5015656;28;20041;-78
2021/09/14 12:43:04;;;;;;;2.67;2.47;;;24.40;98.50;;;;;;5021703;28;20038;-77
2021/09/14 12:45:30;;;;;;;3.08;2.78;;;24.40;97.70;;;;;;5024854;28;20029;-77
2021/09/14 12:47:58;;;;;;;2.40;2.20;;;24.40;97.10;;;;;;5027149;28;20053;-77
2021/09/14 12:50:23;;;;;;;3.38;2.63;;;24.40;97.00;;;;;;5020148;28;20457;-77
2021/09/14 12:52:49;;;;;;;3.47;2.60;;;24.50;98.00;;;;;;5022257;28;20022;-77
2021/09/14 12:55:15;;;;;;;2.88;2.53;;;24.50;95.50;;;;;;5027518;28;20133;-77
2021/09/14 12:57:41;;;;;;;6.85;3.17;;;24.50;95.50;;;;;;4995267;28;20033;-78
2021/09/14 13:00:07;;;;;;;3.20;2.88;;;24.40;96.90;;;;;;5030599;28;20045;-77
2021/09/14 13:02:33;;;;;;;3.97;3.03;;;24.40;97.10;;;;;;5027942;28;20025;-77
2021/09/14 13:04:59;;;;;;;2.72;2.53;;;24.50;96.50;;;;;;5032012;28;20376;-77
2021/09/14 13:07:24;;;;;;;12.82;3.15;;;24.40;95.20;;;;;;5030326;28;20030;-77
2021/09/14 13:09:50;;;;;;;4.57;2.53;;;24.40;95.40;;;;;;5058268;22;20037;-78
2021/09/14 13:12:21;;;;;;;4.00;2.90;;;24.40;96.20;;;;;;5021948;28;20059;-78
2021/09/14 13:17:32;;;;;;;3.33;2.90;;;24.40;96.00;;;;;;5029454;28;20033;-77
2021/09/14 13:19:58;;;;;;;3.58;2.80;;;24.50;96.00;;;;;;5052094;28;20033;-77
2021/09/14 13:22:24;;;;;;;3.97;3.13;;;24.50;95.30;;;;;;5040873;28;20430;-77
2021/09/14 13:24:50;;;;;;;2.80;2.55;;;24.40;96.00;;;;;;5050868;28;20041;-77
2021/09/14 13:27:15;;;;;;;3.00;2.65;;;24.50;97.30;;;;;;5023408;28;20036;-77
2021/09/14 13:29:41;;;;;;;4.30;3.15;;;24.40;97.40;;;;;;5048813;28;20025;-77
2021/09/14 13:32:07;;;;;;;2.63;2.42;;;24.40;98.20;;;;;;5046890;28;20035;-77
2021/09/14 13:34:33;;;;;;;2.78;2.40;;;24.50;99.20;;;;;;5040275;28;20129;-77
2021/09/14 13:36:58;;;;;;;3.45;2.58;;;24.40;99.90;;;;;;5050187;28;20040;-77
2021/09/14 13:39:25;;;;;;;4.63;2.53;;;24.40;99.90;;;;;;5038970;28;20037;-77
2021/09/14 13:41:52;;;;;;;2.40;2.20;;;24.30;96.00;;;;;;5039271;28;20025;-77
2021/09/14 13:46:58;;;;;;;3.92;2.88;;;24.30;95.60;;;;;;5051966;28;20037;-77
2021/09/14 13:49:24;;;;;;;3.70;2.88;;;24.20;97.10;;;;;;5033692;28;20094;-77
2021/09/14 13:51:50;;;;;;;3.28;2.92;;;24.20;96.70;;;;;;5051382;28;20025;-76
2021/09/14 13:54:16;;;;;;;3.42;3.05;;;24.30;97.20;;;;;;5035330;28;20116;-76